Les Masies de Roda





Hora UTC 13:15
Temperatura 12.4 ºC
Sòl 15 cm 18.6 ºC
Subsòl 10 cm 8.2 ºC
Humitat 52.4 %
Pressió 1019.5 hPa
Pluja 0.1 mm
Velocitat vent 0.0 km/h
Direcció vent NNE
Radiació solar 410.0 W/m²

Dades diàries 2021-01-17



Hora UTC (hivern +1h; estiu +2h)
Temperatura (ºC) Humitat (%) Pressió (hPa) Velocitat vent (km/h) Precipitació (mm) Radiació solar (W/m²)
Hora UTC Aire Sòl 15 cm Subsòl 10 cm Humitat Pressió Vel. Dir. Vel. Max Dir. Intent. màx 5 min. Rad. Sol.
00:05 -1.3 -2.2 1.1 98.0 1023.3 1.5 NW 1.5 NW 0.0 0.1
00:10 -1.7 -2.5 1.0 97.4 1023.3 0.0 NNE 0.0 WNW 0.0 0.1
00:15 -1.6 -2.6 1.0 97.8 1023.1 0.0 NNE 0.0 WNW 0.0 0.1
00:20 -1.7 -2.6 1.0 97.8 1023.2 0.0 NNE 0.0 WNW 0.0 0.1
00:25 -1.6 -2.6 0.9 98.0 1023.1 0.3 N 3.4 WNW 0.0 0.1
00:30 -1.5 -2.7 0.9 98.2 1023.1 1.8 E 6.1 E 0.0 0.1
00:35 -1.5 -2.8 0.9 98.1 1022.9 0.3 E 3.4 E 0.0 0.1
00:40 -1.7 -3.1 0.9 97.8 1022.9 0.0 NNW 3.4 NNW 0.0 0.1
00:45 -1.7 -3.4 0.8 97.9 1022.8 0.1 NNW 3.4 NNW 0.0 0.1
00:50 -1.7 -3.6 0.8 98.0 1022.8 0.0 NNE 0.0 NNW 0.0 0.1
00:55 -1.8 -3.7 0.8 97.9 1022.8 0.0 NNE 0.0 NNW 0.0 0.1
01:00 -1.9 -3.8 0.7 97.8 1022.8 0.0 NNE 0.0 NNW 0.0 0.1
01:05 -2.0 -4.1 0.7 97.6 1022.7 0.0 NNE 0.0 NNW 0.0 0.1
01:10 -2.0 -4.1 0.7 97.6 1022.7 0.0 NNE 0.0 NNW 0.0 0.1
01:15 -2.1 -4.2 0.7 97.7 1022.6 0.0 NNE 0.0 NNW 0.0 0.1
01:20 -2.1 -4.3 0.6 97.6 1022.6 0.0 NNE 0.0 WNW 0.0 0.1
01:25 -2.0 -4.3 0.6 97.9 1022.5 0.0 NNE 0.0 WNW 0.0 0.1
01:30 -1.9 -4.1 0.6 98.0 1022.5 0.0 NNE 0.0 SSE 0.0 0.1
01:35 -2.1 -4.3 0.6 97.6 1022.5 0.0 NNE 0.0 SSE 0.0 0.1
01:40 -2.2 -4.4 0.6 97.4 1022.5 0.0 NNE 0.0 SSE 0.0 0.1
01:45 -2.3 -4.5 0.5 97.3 1022.5 0.0 NNE 0.0 SSE 0.0 0.1
01:50 -2.4 -4.6 0.5 97.4 1022.4 0.2 W 3.4 WSW 0.0 0.1
01:55 -2.3 -4.6 0.5 97.6 1022.5 0.0 NNE 0.0 WNW 0.0 0.1
02:00 -2.3 -4.5 0.5 97.8 1022.5 0.0 NNE 0.0 NNE 0.0 0.1
02:05 -2.3 -4.5 0.4 97.8 1022.5 0.0 NNE 0.0 NNE 0.0 0.1
02:10 -2.3 -4.5 0.4 97.8 1022.5 0.0 NNE 0.0 NNE 0.0 0.1
02:15 -2.3 -4.4 0.4 97.9 1022.4 0.1 NNE 3.4 NNE 0.0 0.1
02:20 -2.3 -4.5 0.4 97.8 1022.5 0.0 NNE 0.0 ENE 0.0 0.1
02:25 -2.3 -4.5 0.4 97.9 1022.4 0.0 NNE 0.0 ENE 0.0 0.1
02:30 -2.2 -4.5 0.4 98.1 1022.4 0.0 NNE 0.0 E 0.0 0.1
02:35 -2.0 -4.4 0.4 98.4 1022.4 0.0 NNE 0.0 E 0.0 0.1
02:40 -2.0 -4.4 0.3 98.0 1022.3 0.0 NNE 0.0 E 0.0 0.1
02:45 -2.2 -4.3 0.3 97.6 1022.2 0.0 NNE 0.0 ENE 0.0 0.1
02:50 -2.2 -4.4 0.3 97.7 1022.2 0.0 NNE 0.0 NNE 0.0 0.1
02:55 -2.3 -4.5 0.3 97.5 1022.2 0.0 NNE 0.0 NNE 0.0 0.1
03:00 -2.4 -4.6 0.3 97.4 1022.2 0.0 NNE 0.0 NNE 0.0 0.1
03:05 -2.6 -4.6 0.2 97.3 1022.2 0.7 N 6.1 N 0.0 0.1
03:10 -2.4 -4.3 0.2 97.7 1022.3 2.7 NNE 6.1 N 0.0 0.1
03:15 -2.5 -4.4 0.2 97.3 1022.2 0.7 N 6.1 NNE 0.0 0.1
03:20 -2.5 -4.5 0.2 97.5 1022.1 0.0 NNE 0.0 NNE 0.0 0.1
03:25 -2.6 -4.6 0.2 97.3 1022.1 0.0 NNE 0.0 SW 0.0 0.1
03:30 -2.7 -4.7 0.2 97.2 1022.1 0.0 NNE 0.0 SW 0.0 0.1
03:35 -2.7 -4.8 0.2 97.4 1022.0 0.0 NNE 0.0 SW 0.0 0.1
03:40 -2.7 -4.9 0.2 97.3 1022.0 0.4 NE 3.4 NE 0.0 0.1
03:45 -2.9 -4.9 0.1 97.0 1022.0 0.0 NNE 0.0 NE 0.0 0.1
03:50 -3.1 -5.2 0.1 96.5 1021.8 0.0 NNE 0.0 NE 0.0 0.1
03:55 -3.0 -5.3 0.1 97.2 1021.9 1.4 ENE 3.4 E 0.0 0.1
04:00 -3.1 -5.1 0.1 97.1 1021.9 0.0 ENE 3.4 ENE 0.0 0.1
04:05 -3.1 -5.1 0.1 97.2 1021.8 0.0 NNE 0.0 ENE 0.0 0.1
04:10 -3.2 -5.2 0.1 97.0 1021.8 0.0 NNE 0.0 ENE 0.0 0.1
04:15 -3.2 -5.3 0.1 97.0 1021.8 0.0 NNE 0.0 ENE 0.0 0.1
04:20 -3.3 -5.5 0.0 96.8 1021.8 0.0 NNE 0.0 NE 0.0 0.1
04:25 -3.2 -5.4 0.0 97.2 1021.8 1.6 NE 6.1 ENE 0.0 0.1
04:30 -3.1 -5.3 0.0 97.6 1021.8 0.9 ESE 3.4 ENE 0.0 0.1
04:35 -3.2 -5.3 0.0 97.1 1021.7 0.0 NNE 0.0 E 0.0 0.1
04:40 -3.2 -5.4 0.0 97.3 1021.6 2.2 E 6.1 E 0.0 0.1
04:45 -3.0 -5.1 0.0 97.7 1021.6 2.3 ESE 6.1 ESE 0.0 0.1
04:50 -3.1 -5.1 0.0 97.5 1021.5 0.0 NNE 0.0 ESE 0.0 0.1
04:55 -3.1 -5.2 0.0 97.4 1021.6 0.8 ENE 3.4 ENE 0.0 0.1
05:00 -3.1 -5.1 0.0 97.4 1021.6 0.0 NE 3.4 NE 0.0 0.1
05:05 -3.0 -5.0 0.0 97.6 1021.5 0.0 NNE 0.0 NE 0.0 0.1
05:10 -3.2 -5.2 0.0 97.1 1021.4 0.0 NNE 0.0 NE 0.0 0.1
05:15 -3.3 -5.3 -0.1 97.1 1021.4 0.7 NE 3.4 NE 0.0 0.1
05:20 -3.2 -5.1 -0.1 97.4 1021.5 3.7 ENE 6.1 ENE 0.0 0.1
05:25 -3.1 -4.9 -0.1 97.7 1021.4 1.7 ESE 6.1 ESE 0.0 0.1
05:30 -3.0 -4.9 -0.1 97.8 1021.4 0.0 NNE 0.0 ESE 0.0 0.1
05:35 -3.0 -4.7 0.0 97.6 1021.5 0.6 NW 3.4 NNW 0.0 0.1
05:40 -3.2 -4.7 -0.1 97.2 1021.5 0.0 NNE 0.0 NW 0.0 0.1
05:45 -3.2 -4.8 -0.1 97.5 1021.4 0.0 NNE 0.0 NNW 0.0 0.1
05:50 -3.1 -4.6 -0.1 98.2 1021.5 0.1 NNW 3.4 NNW 0.0 0.1
05:55 -2.9 -4.4 -0.1 98.5 1021.7 1.9 N 6.1 NNW 0.0 0.1
06:00 -2.9 -4.2 -0.1 98.6 1021.5 0.9 NE 6.1 NE 0.0 0.1
06:05 -2.9 -4.0 0.0 98.7 1021.6 2.7 NNE 8.8 NNE 0.0 0.1
06:10 -2.9 -3.7 0.0 98.8 1021.6 1.8 NNW 6.1 NNW 0.0 0.1
06:15 -2.9 -3.6 0.0 99.0 1021.6 0.0 NNE 0.0 NNW 0.0 0.1
06:20 -2.8 -3.4 0.0 99.1 1021.6 0.0 NNE 0.0 SSE 0.0 0.1
06:25 -2.6 -3.2 0.0 99.3 1021.7 5.7 SE 8.8 SE 0.0 0.1
06:30 -2.4 -3.1 0.0 99.3 1021.7 2.5 S 6.1 SSE 0.0 0.1
06:35 -2.4 -3.1 0.0 99.2 1021.7 2.1 SSW 6.1 S 0.0 0.1
06:40 -2.4 -3.3 0.0 99.2 1021.6 1.3 NW 6.1 NNW 0.0 0.1
06:45 -2.4 -3.4 -0.1 99.2 1021.5 0.0 NNE 0.0 N 0.0 0.1
06:50 -2.4 -3.4 -0.1 99.1 1021.5 0.0 NNE 0.0 NNW 0.0 0.1
06:55 -2.4 -3.3 -0.1 99.2 1021.7 3.4 NNE 8.8 N 0.0 0.1
07:00 -2.3 -3.2 0.0 99.1 1021.7 1.2 WNW 6.1 WNW 0.0 0.2
07:05 -2.4 -3.3 -0.1 99.0 1021.7 1.3 WNW 6.1 WNW 0.0 0.4
07:10 -2.3 -3.2 0.0 99.1 1021.7 0.0 NNE 0.0 NE 0.0 1.0
07:15 -2.3 -3.2 -0.1 99.1 1021.6 0.0 NNE 0.0 NW 0.0 1.4
07:20 -2.2 -3.1 -0.1 99.2 1021.6 0.0 NNE 0.0 ENE 0.0 1.9
07:25 -2.1 -3.0 0.0 99.1 1021.6 0.0 NNE 0.0 SE 0.0 3.3
07:30 -2.0 -2.9 0.0 99.1 1021.5 0.0 NNE 0.0 SSE 0.0 6.5
07:35 -1.9 -2.8 0.0 99.0 1021.7 0.0 NNE 0.0 SSW 0.0 8.5
07:40 -2.0 -2.7 0.0 98.8 1021.7 0.0 NNE 0.0 SSW 0.0 10.9
07:45 -1.9 -2.7 0.0 98.9 1021.5 0.0 NNE 0.0 S 0.0 14.0
07:50 -1.9 -2.6 0.0 98.7 1021.7 0.0 NNE 0.0 NW 0.0 14.5
07:55 -1.8 -2.5 0.0 98.7 1021.7 0.0 NNE 0.0 SW 0.0 17.0
08:00 -1.8 -2.3 0.0 98.7 1021.6 0.0 NNE 0.0 NNW 0.0 20.3
08:05 -1.7 -2.2 0.0 98.7 1021.7 0.0 NNE 0.0 NNE 0.0 25.0
08:10 -1.6 -2.2 0.0 98.6 1021.7 0.0 NNE 0.0 NNW 0.0 31.4
08:15 -1.5 -2.1 0.0 98.6 1021.6 0.0 NNE 0.0 NNW 0.0 44.7
08:20 -1.4 -1.8 0.0 98.6 1021.8 0.0 NNE 0.0 SSE 0.0 59.8
08:25 -1.2 -1.6 0.0 98.7 1021.8 0.0 NNE 0.0 N 0.0 46.9
08:30 -1.1 -1.4 0.0 98.5 1021.8 0.0 NNE 0.0 N 0.0 48.8
08:35 -1.1 -1.3 0.1 98.4 1021.9 0.0 NNE 0.0 WSW 0.0 52.0
08:40 -1.0 -1.0 0.1 98.4 1021.9 0.0 NNE 0.0 WNW 0.0 80.3
08:45 -0.8 -0.6 0.1 98.3 1022.0 0.0 NNE 0.0 NE 0.0 144.4
08:50 -0.5 -0.4 0.1 98.1 1022.0 1.4 SW 6.1 SW 0.0 88.9
08:55 -0.5 -0.3 0.1 97.9 1022.1 1.6 NE 6.1 NE 0.0 69.2
09:00 -0.6 -0.2 0.1 97.7 1022.0 0.1 N 3.4 N 0.0 65.5
09:05 -0.5 -0.3 0.1 97.7 1022.1 1.8 NNW 6.1 NNW 0.0 85.4
09:10 -0.3 -0.1 0.1 97.7 1022.0 0.1 NNE 3.4 NNE 0.0 114.8
09:15 -0.3 -0.1 0.1 97.4 1022.1 0.6 NE 3.4 NNE 0.0 107.4
09:20 -0.2 -0.1 0.1 97.1 1022.1 0.6 NNE 6.1 NNE 0.0 122.4
09:25 -0.1 -0.1 0.2 96.9 1022.2 0.2 NNW 3.4 NW 0.0 121.4
09:30 0.0 0.0 0.2 96.5 1022.1 0.0 NNE 0.0 S 0.0 152.8
09:35 0.4 0.6 0.2 96.6 1022.3 0.0 NNE 0.0 SSE 0.0 280.6
09:40 1.3 1.7 0.4 95.8 1022.1 2.7 SSW 6.1 SSW 0.0 368.8
09:45 1.7 2.0 0.4 92.6 1022.2 0.9 NNE 6.1 SSW 0.0 213.8
09:50 1.7 1.8 0.4 91.3 1022.2 0.8 SSW 6.1 SSW 0.1 154.6
09:55 1.8 1.5 0.4 91.8 1022.2 0.8 W 6.1 W 0.0 154.5
10:00 1.6 1.5 0.4 91.5 1022.3 2.9 WSW 6.1 W 0.0 230.0
10:05 2.0 2.3 0.5 91.3 1022.2 2.0 WSW 6.1 WSW 0.0 394.3
10:10 2.5 2.9 0.7 88.5 1022.2 0.4 WSW 3.4 W 0.0 224.4
10:15 2.7 3.5 0.9 88.1 1022.2 3.8 WSW 8.8 W 0.0 331.2
10:20 2.5 3.7 1.0 87.0 1022.0 4.0 SW 8.8 SW 0.0 128.9
10:25 2.5 3.6 1.1 88.4 1022.2 0.9 SW 6.1 WSW 0.0 107.2
10:30 2.4 3.2 1.2 88.5 1022.0 3.3 WSW 6.1 WSW 0.0 95.8
10:35 2.1 2.7 1.3 90.5 1022.0 4.1 W 6.1 W 0.0 85.8
10:40 1.9 2.5 1.3 91.4 1021.9 0.4 W 3.4 W 0.0 99.2
10:45 2.0 2.6 1.4 91.9 1021.9 0.5 WNW 3.4 W 0.0 142.6
10:50 2.0 2.8 1.5 92.2 1021.8 1.3 NW 3.4 WNW 0.0 140.6
10:55 2.2 3.0 1.6 92.2 1021.7 0.0 WNW 3.4 WNW 0.0 125.1
11:00 2.3 3.1 1.7 91.7 1021.7 0.4 WSW 3.4 WNW 0.0 159.5
11:05 2.5 3.5 1.9 91.0 1021.6 0.0 NNE 0.0 W 0.0 169.5
11:10 2.7 3.8 2.0 90.2 1021.6 0.0 NNE 0.0 NNW 0.0 153.3
11:15 2.9 4.0 2.1 89.0 1021.4 0.0 NNE 0.0 W 0.0 156.4
11:20 3.4 4.8 2.3 88.9 1021.4 0.0 NNE 0.0 SSW 0.0 261.4
11:25 3.6 5.4 2.5 85.6 1021.3 0.2 SSE 6.1 SSE 0.0 183.7
11:30 4.0 5.8 2.6 85.7 1021.1 3.8 S 6.1 SSE 0.0 314.6
11:35 4.3 6.6 2.8 83.7 1020.9 4.2 S 8.8 SSW 0.0 341.1
11:40 5.2 8.1 3.2 82.0 1021.0 2.1 SW 6.1 SSW 0.0 469.9
11:45 6.0 9.6 3.6 78.8 1020.8 1.6 SSE 6.1 S 0.0 433.5
11:50 6.4 11.6 4.0 78.9 1020.7 2.0 E 6.1 ESE 0.0 465.8
11:55 7.5 12.1 4.4 75.5 1020.6 3.8 SW 6.1 W 0.0 473.4
12:00 8.3 12.7 4.7 72.0 1020.5 3.3 WSW 6.1 SW 0.0 485.8
12:05 9.0 13.7 5.1 68.6 1020.5 2.8 SSW 8.8 SSW 0.0 530.4
12:10 9.7 15.5 5.4 64.3 1020.4 2.1 SSW 6.1 S 0.0 544.9
12:15 10.2 16.5 5.8 60.1 1020.3 2.2 SSW 6.1 SW 0.0 545.2
12:20 10.6 16.6 6.1 58.3 1020.2 1.3 WSW 6.1 SW 0.0 539.7
12:25 11.2 17.4 6.4 57.0 1020.1 1.6 SW 6.1 SW 0.0 555.1
12:30 11.4 17.5 6.8 56.2 1020.1 1.8 WNW 6.1 WSW 0.0 539.4
12:35 11.0 17.6 7.0 57.4 1020.1 1.2 NW 6.1 NE 0.0 542.6
12:40 11.6 17.7 7.2 55.7 1020.0 1.0 SSW 6.1 SW 0.0 535.0
12:45 12.1 18.1 7.4 55.6 1019.9 0.7 SW 6.1 S 0.0 489.8
12:50 12.2 17.6 7.6 54.0 1019.9 1.9 SW 6.1 SW 0.0 463.1
12:55 12.5 17.4 7.8 53.9 1019.8 2.9 SW 6.1 WSW 0.0 445.9
13:00 12.7 17.4 7.9 54.1 1019.7 3.1 SW 8.8 SSW 0.0 427.3
13:05 12.8 17.4 8.0 53.5 1019.6 0.3 WSW 3.4 WSW 0.0 412.2
13:10 12.7 17.8 8.1 52.4 1019.5 2.2 S 6.1 SSE 0.0 410.5
13:15 12.4 18.6 8.2 52.4 1019.5 0.0 NNE 0.0 SSE 0.0 410.0
Màxima 12.9 18.6 8.2 99.3 1023.3 5.7 SE 8.8 SSW 0.1 555.1
Mínima -3.3 -5.5 -0.1 52.4 1019.5
Total 0.1